createdAt,value
2017-09-27T00:01:26.306Z,87.17
2017-09-27T00:03:53.879Z,87.45
2017-09-27T00:06:21.487Z,87.54
2017-09-27T00:08:49.654Z,87.29
2017-09-27T00:11:17.629Z,87.11
2017-09-27T00:13:47.072Z,86.79
2017-09-27T00:16:15.429Z,86.60
2017-09-27T00:18:43.314Z,86.75
2017-09-27T00:21:10.933Z,86.98
2017-09-27T00:23:38.872Z,87.97
2017-09-27T00:26:06.436Z,87.98
2017-09-27T00:28:34.023Z,88.28
2017-09-27T00:31:02.268Z,88.81
2017-09-27T00:33:29.865Z,88.39
2017-09-27T00:35:57.439Z,88.36
2017-09-27T00:38:25.016Z,88.33
2017-09-27T00:40:52.740Z,87.94
2017-09-27T00:43:20.714Z,87.00
2017-09-27T00:45:48.660Z,86.60
2017-09-27T00:48:16.960Z,86.72
2017-09-27T00:50:44.545Z,86.92
2017-09-27T00:53:13.363Z,87.12
2017-09-27T00:55:40.983Z,87.26
2017-09-27T00:58:08.549Z,87.59
2017-09-27T01:00:36.143Z,87.60
2017-09-27T01:03:03.723Z,87.41
2017-09-27T01:05:32.755Z,87.25
2017-09-27T01:08:00.799Z,87.21
2017-09-27T01:10:29.679Z,87.37
2017-09-27T01:12:59.948Z,87.59
2017-09-27T01:15:28.314Z,87.59
2017-09-27T01:17:56.293Z,87.45
2017-09-27T01:20:25.206Z,88.09
2017-09-27T01:22:53.221Z,87.82
2017-09-27T01:25:20.789Z,87.57
2017-09-27T01:27:50.196Z,87.34
2017-09-27T01:30:17.762Z,87.11
2017-09-27T01:32:45.355Z,86.98
2017-09-27T01:35:14.386Z,87.34
2017-09-27T01:37:44.546Z,86.72
2017-09-27T01:40:12.479Z,87.22
2017-09-27T01:42:42.257Z,87.79
2017-09-27T01:45:10.305Z,88.16
2017-09-27T01:47:38.358Z,89.59
2017-09-27T01:50:06.970Z,89.69
2017-09-27T01:52:35.766Z,89.45
2017-09-27T01:55:04.669Z,89.60
2017-09-27T01:57:33.561Z,89.98
2017-09-27T02:00:01.153Z,89.66
2017-09-27T02:02:29.688Z,89.45
2017-09-27T02:04:57.629Z,89.15
2017-09-27T02:07:25.597Z,88.30
2017-09-27T02:09:54.741Z,88.51
2017-09-27T02:12:22.344Z,88.77
2017-09-27T02:14:49.934Z,88.63
2017-09-27T02:17:18.303Z,88.41
2017-09-27T02:19:46.321Z,88.74
2017-09-27T02:22:14.552Z,88.62
2017-09-27T02:24:43.581Z,89.28
2017-09-27T02:27:11.927Z,88.84
2017-09-27T02:29:39.562Z,89.11
2017-09-27T02:32:09.246Z,89.21
2017-09-27T02:34:37.290Z,89.75
2017-09-27T02:37:05.210Z,89.99
2017-09-27T02:39:33.197Z,89.66
2017-09-27T02:42:03.239Z,89.33
2017-09-27T02:44:30.832Z,89.30
2017-09-27T02:46:58.857Z,89.79
2017-09-27T02:49:26.711Z,90.27
2017-09-27T02:51:54.764Z,89.84
2017-09-27T02:54:23.379Z,90.45
2017-09-27T02:56:52.411Z,90.53
2017-09-27T02:59:21.401Z,90.50
2017-09-27T03:01:48.990Z,90.10
2017-09-27T03:04:16.969Z,90.03
2017-09-27T03:06:47.189Z,90.17
2017-09-27T03:09:14.785Z,91.21
2017-09-27T03:11:44.128Z,91.36
2017-09-27T03:14:13.163Z,90.87
2017-09-27T03:16:40.733Z,91.01
2017-09-27T03:19:08.356Z,91.43
2017-09-27T03:21:35.985Z,91.46
2017-09-27T03:24:04.060Z,91.58
2017-09-27T03:26:32.819Z,91.55
2017-09-27T03:29:00.398Z,91.58
2017-09-27T03:31:27.964Z,91.47
2017-09-27T03:33:56.864Z,91.31
2017-09-27T03:36:24.439Z,91.56
2017-09-27T03:38:54.094Z,91.50
2017-09-27T03:41:21.670Z,91.47
2017-09-27T03:43:49.281Z,91.43
2017-09-27T03:46:16.870Z,91.19
2017-09-27T03:48:44.553Z,91.15
2017-09-27T03:51:12.768Z,91.05
2017-09-27T03:53:40.357Z,90.94
2017-09-27T03:56:10.634Z,90.62
2017-09-27T03:58:38.237Z,90.45
2017-09-27T04:01:07.296Z,90.37
2017-09-27T04:03:34.865Z,90.57
2017-09-27T04:06:02.453Z,91.35
2017-09-27T04:08:31.803Z,91.77
2017-09-27T04:10:59.430Z,91.89
2017-09-27T04:13:28.468Z,92.14
2017-09-27T04:15:56.037Z,92.30
2017-09-27T04:18:23.656Z,92.58
2017-09-27T04:20:52.003Z,92.78
2017-09-27T04:23:19.879Z,92.77
2017-09-27T04:25:47.466Z,92.64
2017-09-27T04:28:15.061Z,92.53
2017-09-27T04:30:42.673Z,92.44
2017-09-27T04:33:10.262Z,92.57
2017-09-27T04:35:39.389Z,92.98
2017-09-27T04:38:06.976Z,93.24
2017-09-27T04:40:36.428Z,93.36
2017-09-27T04:43:04.062Z,93.87
2017-09-27T04:45:31.632Z,94.11
2017-09-27T04:47:59.230Z,94.34
2017-09-27T04:50:28.257Z,94.35
2017-09-27T04:52:56.251Z,94.73
2017-09-27T04:55:24.255Z,94.74
2017-09-27T04:57:53.830Z,94.93
2017-09-27T05:00:22.023Z,95.24
2017-09-27T05:02:49.948Z,95.17
2017-09-27T05:05:17.954Z,95.17
2017-09-27T05:07:46.874Z,95.18
2017-09-27T05:10:16.797Z,95.49
2017-09-27T05:12:44.370Z,95.86
2017-09-27T05:15:11.953Z,95.81
2017-09-27T05:17:40.263Z,95.75
2017-09-27T05:20:08.179Z,95.72
2017-09-27T05:22:35.766Z,95.83
2017-09-27T05:25:03.722Z,95.76
2017-09-27T05:27:31.295Z,96.01
2017-09-27T05:30:01.403Z,96.22
2017-09-27T05:32:29.005Z,96.52
2017-09-27T05:34:56.584Z,96.55
2017-09-27T05:37:24.154Z,96.67
2017-09-27T05:39:51.724Z,96.66
2017-09-27T05:42:19.751Z,96.60
2017-09-27T05:44:47.689Z,96.57
2017-09-27T05:47:15.306Z,96.44
2017-09-27T05:49:44.728Z,96.38
2017-09-27T05:52:15.714Z,96.31
2017-09-27T05:54:43.318Z,96.27
2017-09-27T05:57:10.934Z,96.13
2017-09-27T05:59:38.878Z,95.96
2017-09-27T06:02:06.506Z,95.83
2017-09-27T06:04:35.502Z,95.70
2017-09-27T06:07:03.123Z,95.56
2017-09-27T06:09:31.504Z,95.41
2017-09-27T06:11:59.158Z,95.34
2017-09-27T06:14:28.054Z,95.93
2017-09-27T06:16:55.845Z,95.95
2017-09-27T06:19:23.445Z,95.93
2017-09-27T06:21:52.499Z,95.85
2017-09-27T06:24:21.508Z,95.71
2017-09-27T06:26:49.226Z,95.54
2017-09-27T06:29:17.810Z,95.44
2017-09-27T06:31:47.057Z,95.30
2017-09-27T06:34:14.639Z,95.36
2017-09-27T06:36:43.533Z,95.44
2017-09-27T06:39:11.105Z,95.39
2017-09-27T06:41:38.784Z,95.38
2017-09-27T06:44:06.382Z,95.26
2017-09-27T06:46:33.997Z,95.31
2017-09-27T06:49:01.599Z,95.44
2017-09-27T06:51:32.065Z,95.43
2017-09-27T06:53:59.668Z,95.30
2017-09-27T06:56:27.728Z,95.23
2017-09-27T06:58:55.308Z,95.07
2017-09-27T07:01:22.919Z,94.94
2017-09-27T07:03:50.928Z,94.88
2017-09-27T07:06:18.724Z,94.71
2017-09-27T07:08:48.956Z,94.55
2017-09-27T07:11:20.294Z,94.52
2017-09-27T07:13:48.021Z,94.46
2017-09-27T07:16:15.927Z,94.44
2017-09-27T07:18:43.510Z,94.42
2017-09-27T07:21:11.986Z,94.54
2017-09-27T07:23:39.577Z,94.88
2017-09-27T07:26:07.176Z,94.76
2017-09-27T07:28:35.683Z,94.88
2017-09-27T07:31:04.838Z,94.99
2017-09-27T07:33:32.477Z,95.13
2017-09-27T07:36:00.821Z,95.06
2017-09-27T07:38:28.409Z,94.89
2017-09-27T07:40:56.017Z,94.78
2017-09-27T07:43:23.631Z,94.66
2017-09-27T07:45:51.233Z,94.80
2017-09-27T07:48:18.813Z,95.01
2017-09-27T07:50:46.398Z,94.76
2017-09-27T07:53:16.627Z,94.75
2017-09-27T07:55:44.248Z,94.69
2017-09-27T07:58:15.225Z,94.73
2017-09-27T08:00:42.829Z,94.79
2017-09-27T08:03:10.427Z,94.70
2017-09-27T08:05:38.028Z,94.58
2017-09-27T08:08:07.900Z,94.43
2017-09-27T08:10:36.127Z,94.20
2017-09-27T08:13:03.728Z,94.15
2017-09-27T08:15:32.750Z,93.88
2017-09-27T08:18:00.888Z,93.67
2017-09-27T08:20:34.134Z,93.54
2017-09-27T08:23:02.131Z,93.44
2017-09-27T08:25:29.722Z,93.20
2017-09-27T08:27:57.322Z,93.26
2017-09-27T08:30:26.202Z,93.36
2017-09-27T08:32:53.779Z,93.36
2017-09-27T08:35:24.392Z,93.33
2017-09-27T08:37:53.683Z,93.34
2017-09-27T08:40:21.256Z,93.28
2017-09-27T08:42:49.241Z,93.19
2017-09-27T08:45:18.199Z,92.96
2017-09-27T08:47:47.907Z,92.82
2017-09-27T08:50:15.499Z,92.74
2017-09-27T08:52:43.091Z,92.44
2017-09-27T08:55:12.146Z,92.36
2017-09-27T08:57:41.525Z,91.75
2017-09-27T09:00:10.515Z,91.33
2017-09-27T09:02:39.428Z,91.43
2017-09-27T09:05:07.112Z,91.54
2017-09-27T09:07:36.681Z,90.85
2017-09-27T09:10:04.736Z,90.50
2017-09-27T09:12:32.315Z,90.43
2017-09-27T09:14:59.931Z,89.92
2017-09-27T09:17:27.518Z,88.96
2017-09-27T09:19:55.450Z,89.23
2017-09-27T09:22:23.526Z,89.01
2017-09-27T09:24:54.042Z,88.43
2017-09-27T09:27:22.374Z,87.41
2017-09-27T09:29:51.377Z,88.18
2017-09-27T09:32:18.965Z,87.12
2017-09-27T09:34:46.548Z,86.77
2017-09-27T09:37:14.181Z,87.52
2017-09-27T09:39:42.190Z,86.35
2017-09-27T09:42:10.186Z,85.91
2017-09-27T09:44:37.766Z,85.58
2017-09-27T09:47:05.394Z,85.10
2017-09-27T09:49:32.998Z,86.20
2017-09-27T09:52:00.605Z,86.53
2017-09-27T09:54:28.206Z,86.30
2017-09-27T09:56:56.218Z,85.82
2017-09-27T09:59:24.566Z,84.53
2017-09-27T10:01:52.504Z,84.79
2017-09-27T10:04:20.091Z,84.48
2017-09-27T10:06:48.013Z,84.42
2017-09-27T10:09:15.611Z,83.83
2017-09-27T10:11:44.510Z,83.36
2017-09-27T10:14:12.525Z,83.51
2017-09-27T10:16:40.455Z,83.08
2017-09-27T10:19:08.169Z,84.19
2017-09-27T10:21:36.192Z,83.94
2017-09-27T10:24:04.429Z,83.87
2017-09-27T10:26:33.816Z,84.81
2017-09-27T10:29:01.794Z,84.87
2017-09-27T10:31:30.891Z,82.71
2017-09-27T10:33:58.501Z,82.67
2017-09-27T10:36:26.530Z,82.50
2017-09-27T10:38:54.123Z,83.42
2017-09-27T10:41:21.738Z,82.11
2017-09-27T10:43:49.330Z,82.78
2017-09-27T10:46:16.964Z,81.75
2017-09-27T10:48:45.793Z,81.53
2017-09-27T10:51:14.783Z,81.54
2017-09-27T10:53:43.695Z,81.38
2017-09-27T10:56:11.310Z,81.56
2017-09-27T10:58:39.772Z,81.99
2017-09-27T11:01:08.886Z,81.52
2017-09-27T11:03:36.968Z,81.20
2017-09-27T11:06:05.982Z,79.93
2017-09-27T11:08:35.185Z,80.18
2017-09-27T11:11:02.779Z,80.31
2017-09-27T11:13:30.869Z,79.05
2017-09-27T11:15:59.154Z,78.39
2017-09-27T11:18:26.773Z,77.93
2017-09-27T11:20:54.350Z,78.50
2017-09-27T11:23:22.009Z,76.93
2017-09-27T11:25:49.587Z,77.06
2017-09-27T11:28:17.189Z,77.08
2017-09-27T11:30:45.295Z,77.75
2017-09-27T11:33:12.866Z,75.35
2017-09-27T11:35:40.869Z,74.66
2017-09-27T11:38:09.078Z,74.14
2017-09-27T11:40:38.036Z,74.67
2017-09-27T11:43:06.610Z,75.68
2017-09-27T11:45:36.058Z,76.07
2017-09-27T11:48:03.635Z,74.12
2017-09-27T11:50:31.225Z,74.03
2017-09-27T11:52:59.175Z,71.78
2017-09-27T11:55:27.139Z,72.09
2017-09-27T11:57:55.134Z,72.45
2017-09-27T12:00:22.684Z,72.95
2017-09-27T12:02:51.851Z,72.08
2017-09-27T12:05:19.455Z,71.68
2017-09-27T12:07:47.048Z,69.54
2017-09-27T12:10:14.621Z,69.84
2017-09-27T12:12:42.231Z,70.42
2017-09-27T12:15:09.790Z,71.39
2017-09-27T12:17:38.638Z,70.05
2017-09-27T12:20:07.530Z,70.41
2017-09-27T12:22:35.380Z,69.83
2017-09-27T12:25:02.937Z,69.58
2017-09-27T12:27:31.048Z,67.96
2017-09-27T12:29:58.733Z,68.97
2017-09-27T12:32:26.295Z,68.69
2017-09-27T12:34:54.586Z,63.23
2017-09-27T12:37:22.535Z,63.00
2017-09-27T12:39:50.116Z,61.92
2017-09-27T12:42:19.363Z,63.38
2017-09-27T12:44:46.948Z,62.66
2017-09-27T12:47:14.517Z,63.78
2017-09-27T12:49:42.097Z,61.60
2017-09-27T12:52:10.044Z,61.76
2017-09-27T12:54:38.239Z,59.76
2017-09-27T12:57:05.816Z,60.83
2017-09-27T12:59:33.752Z,60.09
2017-09-27T13:02:01.334Z,58.72
2017-09-27T13:04:28.916Z,59.73
2017-09-27T13:06:56.514Z,60.12
2017-09-27T13:09:24.809Z,60.84
2017-09-27T13:11:52.417Z,60.65
2017-09-27T13:14:19.992Z,58.98
2017-09-27T13:16:47.925Z,61.32
2017-09-27T13:19:15.523Z,58.03
2017-09-27T13:21:43.119Z,60.46
2017-09-27T13:24:12.079Z,60.51
2017-09-27T13:26:40.296Z,60.78
2017-09-27T13:29:08.808Z,63.09
2017-09-27T13:31:37.415Z,62.65
2017-09-27T13:34:04.961Z,64.05
2017-09-27T13:36:32.653Z,64.25
2017-09-27T13:39:00.245Z,65.91
2017-09-27T13:41:27.812Z,65.81
2017-09-27T13:43:55.409Z,66.18
2017-09-27T13:46:22.963Z,66.67
2017-09-27T13:48:50.536Z,66.52
2017-09-27T13:51:18.107Z,66.97
2017-09-27T13:53:45.653Z,67.70
2017-09-27T13:56:13.221Z,67.35
2017-09-27T13:58:41.614Z,66.50
2017-09-27T14:01:09.172Z,67.42
2017-09-27T14:03:37.151Z,66.38
2017-09-27T14:06:04.901Z,66.72
2017-09-27T14:08:32.455Z,65.53
2017-09-27T14:11:00.030Z,66.31
2017-09-27T14:13:27.600Z,66.12
2017-09-27T14:15:55.584Z,65.82
2017-09-27T14:18:23.161Z,65.67
2017-09-27T14:20:50.855Z,66.53
2017-09-27T14:23:18.429Z,67.41
2017-09-27T14:25:46.705Z,67.19
2017-09-27T14:28:14.275Z,67.22
2017-09-27T14:30:41.875Z,67.24
2017-09-27T14:33:09.454Z,67.79
2017-09-27T14:35:37.036Z,68.66
2017-09-27T14:38:04.626Z,68.54
2017-09-27T14:40:32.197Z,68.99
2017-09-27T14:42:59.830Z,69.26
2017-09-27T14:45:27.385Z,69.00
2017-09-27T14:47:55.310Z,69.39
2017-09-27T14:50:22.890Z,69.44
2017-09-27T14:52:50.463Z,69.50
2017-09-27T14:55:18.077Z,69.92
2017-09-27T14:57:45.671Z,70.07
2017-09-27T15:00:13.268Z,68.93
2017-09-27T15:02:41.291Z,69.36
2017-09-27T15:05:08.894Z,69.94
2017-09-27T15:07:36.483Z,70.92
2017-09-27T15:10:04.059Z,70.93
2017-09-27T15:12:31.624Z,70.27
2017-09-27T15:14:59.236Z,70.63
2017-09-27T15:17:26.817Z,70.54
2017-09-27T15:19:54.433Z,70.63
2017-09-27T15:22:22.022Z,70.81
2017-09-27T15:24:49.569Z,71.00
2017-09-27T15:27:17.201Z,71.21
2017-09-27T15:29:44.775Z,71.37
2017-09-27T15:32:12.357Z,71.53
2017-09-27T15:34:39.944Z,71.74
2017-09-27T15:37:07.548Z,71.90
2017-09-27T15:39:35.496Z,72.03
2017-09-27T15:42:03.811Z,71.89
2017-09-27T15:44:31.490Z,72.25
2017-09-27T15:46:59.061Z,72.14
2017-09-27T15:49:26.632Z,72.32
2017-09-27T15:51:54.220Z,72.31
2017-09-27T15:54:21.771Z,72.48
2017-09-27T15:56:49.492Z,72.78
2017-09-27T15:59:17.132Z,73.00
2017-09-27T16:01:45.982Z,73.65
2017-09-27T16:04:13.574Z,73.82
2017-09-27T16:06:41.151Z,73.92
2017-09-27T16:09:09.185Z,74.10
2017-09-27T16:11:36.770Z,74.27
2017-09-27T16:14:04.338Z,74.45
2017-09-27T16:16:32.106Z,74.62
2017-09-27T16:18:59.666Z,74.73
2017-09-27T16:21:27.274Z,74.98
2017-09-27T16:23:54.839Z,75.10
2017-09-27T16:26:22.432Z,75.19
2017-09-27T16:28:50.386Z,75.47
2017-09-27T16:31:17.991Z,75.75
2017-09-27T16:33:45.571Z,75.74
2017-09-27T16:36:13.175Z,75.88
2017-09-27T16:38:40.733Z,76.49
2017-09-27T16:41:08.333Z,76.57
2017-09-27T16:43:35.959Z,76.72
2017-09-27T16:46:03.542Z,76.85
2017-09-27T16:48:31.124Z,76.98
2017-09-27T16:50:59.052Z,77.29
2017-09-27T16:53:26.646Z,77.85
2017-09-27T16:55:54.197Z,77.75
2017-09-27T16:58:23.237Z,77.96
2017-09-27T17:00:51.280Z,78.07
2017-09-27T17:03:18.922Z,78.27
2017-09-27T17:05:46.497Z,78.94
2017-09-27T17:08:16.500Z,78.94
2017-09-27T17:10:45.088Z,79.13
2017-09-27T17:13:12.682Z,79.19
2017-09-27T17:15:40.274Z,79.44
2017-09-27T17:18:08.564Z,79.54
2017-09-27T17:20:36.153Z,79.94
2017-09-27T17:23:04.039Z,80.44
2017-09-27T17:25:31.672Z,81.19
2017-09-27T17:27:59.281Z,81.61
2017-09-27T17:30:27.451Z,81.77
2017-09-27T17:32:55.069Z,81.98
2017-09-27T17:35:22.690Z,82.27
2017-09-27T17:37:50.280Z,82.17
2017-09-27T17:40:18.539Z,82.12
2017-09-27T17:42:46.888Z,83.02
2017-09-27T17:45:14.459Z,82.77
2017-09-27T17:47:42.060Z,82.92
2017-09-27T17:50:11.017Z,82.96
2017-09-27T17:52:38.646Z,82.94
2017-09-27T17:55:06.577Z,83.18
2017-09-27T17:57:34.203Z,83.39
2017-09-27T18:00:02.233Z,83.74
2017-09-27T18:02:30.209Z,84.00
2017-09-27T18:05:13.397Z,84.04
2017-09-27T18:07:48.495Z,83.87
2017-09-27T18:10:22.186Z,83.76
2017-09-27T18:13:00.848Z,83.66
2017-09-27T18:15:34.685Z,84.06
2017-09-27T18:21:08.878Z,84.61
2017-09-27T18:23:38.872Z,84.50
2017-09-27T18:26:06.481Z,84.47
2017-09-27T18:28:34.765Z,84.49
2017-09-27T18:31:03.048Z,84.40
2017-09-27T18:33:30.625Z,84.66
2017-09-27T18:35:59.880Z,84.90
2017-09-27T18:38:27.466Z,84.95
2017-09-27T18:40:57.836Z,84.96
2017-09-27T18:43:30.680Z,85.04
2017-09-27T18:45:58.770Z,85.03
2017-09-27T18:48:26.380Z,85.02
2017-09-27T18:50:55.921Z,85.09
2017-09-27T18:53:23.513Z,85.38
2017-09-27T18:55:53.119Z,85.10
2017-09-27T18:58:20.712Z,84.95
2017-09-27T19:00:48.750Z,84.87
2017-09-27T19:03:17.740Z,84.80
2017-09-27T19:05:46.127Z,84.81
2017-09-27T19:08:14.182Z,85.08
2017-09-27T19:10:43.981Z,85.46
2017-09-27T19:13:11.677Z,85.81
2017-09-27T19:15:39.270Z,85.96
2017-09-27T19:18:08.242Z,85.66
2017-09-27T19:20:36.642Z,85.36
2017-09-27T19:23:04.720Z,85.46
2017-09-27T19:25:32.339Z,85.40
2017-09-27T19:28:00.289Z,85.46
2017-09-27T19:30:28.314Z,85.64
2017-09-27T19:32:56.373Z,86.51
2017-09-27T19:35:25.321Z,86.34
2017-09-27T19:37:56.042Z,86.27
2017-09-27T19:40:24.449Z,86.20
2017-09-27T19:42:52.051Z,86.05
2017-09-27T19:45:20.095Z,86.14
2017-09-27T19:47:47.641Z,85.91
2017-09-27T19:50:15.303Z,86.09
2017-09-27T19:52:42.928Z,86.21
2017-09-27T19:55:10.562Z,86.00
2017-09-27T19:57:38.163Z,85.92
2017-09-27T20:00:08.013Z,86.05
2017-09-27T20:02:38.470Z,86.01
2017-09-27T20:05:06.083Z,86.31
2017-09-27T20:07:34.059Z,86.32
2017-09-27T20:10:01.963Z,86.47
2017-09-27T20:12:30.190Z,86.68
2017-09-27T20:14:58.092Z,87.00
2017-09-27T20:17:25.818Z,87.04
2017-09-27T20:19:53.764Z,87.17
2017-09-27T20:22:21.749Z,87.11
2017-09-27T20:24:50.583Z,87.25
2017-09-27T20:27:18.200Z,87.47
2017-09-27T20:29:46.585Z,87.78
2017-09-27T20:32:14.655Z,87.67
2017-09-27T20:34:42.248Z,87.61
2017-09-27T20:37:10.659Z,87.62
2017-09-27T20:39:38.279Z,87.67
2017-09-27T20:42:07.119Z,87.66
2017-09-27T20:44:34.767Z,87.67
2017-09-27T20:47:02.350Z,87.76
2017-09-27T20:49:31.485Z,87.75
2017-09-27T20:51:59.451Z,87.74
2017-09-27T20:54:27.406Z,88.00
2017-09-27T20:56:54.995Z,87.94
2017-09-27T20:59:24.183Z,87.85
2017-09-27T21:01:51.753Z,87.70
2017-09-27T21:04:20.509Z,87.90
2017-09-27T21:06:48.507Z,87.94
2017-09-27T21:09:16.198Z,87.95
2017-09-27T21:11:43.796Z,87.91
2017-09-27T21:14:11.378Z,88.06
2017-09-27T21:16:39.121Z,87.96
2017-09-27T21:19:07.962Z,87.78
2017-09-27T21:21:36.852Z,87.55
2017-09-27T21:24:04.420Z,87.53
2017-09-27T21:26:32.025Z,87.63
2017-09-27T21:28:59.608Z,87.50
2017-09-27T21:31:27.231Z,87.39
2017-09-27T21:33:55.185Z,87.46
2017-09-27T21:36:22.863Z,87.75
2017-09-27T21:38:50.909Z,87.59
2017-09-27T21:41:19.877Z,87.60
2017-09-27T21:43:47.587Z,87.77
2017-09-27T21:46:15.574Z,88.04
2017-09-27T21:48:44.515Z,87.86
2017-09-27T21:51:12.102Z,87.94
2017-09-27T21:53:39.711Z,88.13
2017-09-27T21:56:07.312Z,88.10
2017-09-27T21:58:36.996Z,88.06
2017-09-27T22:01:04.564Z,88.05
2017-09-27T22:03:32.440Z,88.42
2017-09-27T22:06:01.016Z,88.71
2017-09-27T22:08:28.612Z,88.80
2017-09-27T22:10:56.213Z,88.84
2017-09-27T22:13:25.233Z,88.64
2017-09-27T22:15:52.826Z,88.54
2017-09-27T22:18:20.412Z,88.40
2017-09-27T22:20:48.023Z,88.25
2017-09-27T22:23:15.629Z,88.21
2017-09-27T22:25:45.641Z,87.99
2017-09-27T22:28:13.220Z,87.88
2017-09-27T22:30:42.451Z,87.89
2017-09-27T22:33:10.091Z,87.91
2017-09-27T22:35:38.014Z,88.13
2017-09-27T22:38:05.623Z,88.21
2017-09-27T22:40:33.518Z,88.09
2017-09-27T22:43:01.118Z,88.02
2017-09-27T22:45:28.689Z,88.11
2017-09-27T22:47:57.915Z,87.99
2017-09-27T22:50:25.840Z,87.92
2017-09-27T22:52:55.109Z,87.88
2017-09-27T22:55:22.688Z,87.83
2017-09-27T22:57:50.318Z,87.97
2017-09-27T23:00:19.294Z,87.88
2017-09-27T23:02:46.901Z,87.90
2017-09-27T23:05:14.510Z,88.00
2017-09-27T23:07:44.556Z,87.97
2017-09-27T23:10:12.141Z,87.70
2017-09-27T23:12:39.940Z,87.81
2017-09-27T23:15:08.332Z,87.97
2017-09-27T23:17:36.008Z,88.52
2017-09-27T23:20:03.635Z,88.84
2017-09-27T23:22:36.490Z,88.96
2017-09-27T23:25:04.119Z,88.64
2017-09-27T23:27:31.717Z,88.33
2017-09-27T23:29:59.725Z,87.86
2017-09-27T23:32:27.358Z,87.99
2017-09-27T23:34:54.995Z,87.85
2017-09-27T23:37:23.012Z,87.83
2017-09-27T23:39:50.626Z,88.04
2017-09-27T23:42:19.644Z,88.10
2017-09-27T23:44:48.579Z,88.15
2017-09-27T23:47:16.177Z,88.55
2017-09-27T23:49:44.124Z,88.56
2017-09-27T23:52:12.224Z,88.71
2017-09-27T23:54:41.492Z,88.71
2017-09-27T23:57:11.841Z,88.67
2017-09-27T23:59:39.873Z,88.46
